Time;durP1;ratioP1;P1;durP2;ratioP2;P2;SDS_P1;SDS_P2;PMS_P1;PMS_P2;Temp;Humidity;BMP_temperature;BMP_pressure;BME280_temperature;BME280_humidity;BME280_pressure;Samples;Min_cycle;Max_cycle;Signal;HPM_P1;HPM_P2
2024/03/11 00:01:24;;;;;;;9.85;6.65;;;12.00;96.70;;;;;;4931666;29;20070;-67
2024/03/11 00:03:53;;;;;;;7.40;6.45;;;11.90;96.70;;;;;;4945671;29;20423;-68
2024/03/11 00:06:24;;;;;;;8.60;7.25;;;11.90;96.70;;;;;;4927988;29;20047;-68
2024/03/11 00:08:52;;;;;;;8.70;6.65;;;11.90;96.70;;;;;;4928747;29;20134;-68
2024/03/11 00:11:24;;;;;;;9.70;6.80;;;11.80;96.70;;;;;;4929856;29;20058;-67
2024/03/11 00:13:54;;;;;;;7.95;6.45;;;11.90;96.70;;;;;;4914127;29;20051;-67
2024/03/11 00:16:27;;;;;;;10.02;8.10;;;11.90;96.70;;;;;;4944761;29;20043;-68
2024/03/11 00:18:59;;;;;;;9.60;7.50;;;11.90;96.70;;;;;;4931342;29;20079;-67
2024/03/11 00:21:28;;;;;;;10.38;7.50;;;11.80;96.70;;;;;;4929442;29;20073;-68
2024/03/11 00:23:58;;;;;;;12.02;7.22;;;11.80;96.70;;;;;;4918044;29;20047;-67
2024/03/11 00:26:28;;;;;;;9.90;7.22;;;11.80;96.70;;;;;;4933924;29;20055;-67
2024/03/11 00:28:57;;;;;;;9.70;7.03;;;11.80;96.70;;;;;;4928417;29;20051;-68
2024/03/11 00:31:32;;;;;;;9.85;7.50;;;11.80;96.70;;;;;;4946654;29;20047;-68
2024/03/11 00:34:00;;;;;;;8.18;7.35;;;11.80;96.70;;;;;;4929979;29;20047;-68
2024/03/11 00:36:31;;;;;;;10.55;7.43;;;11.70;96.70;;;;;;4926396;29;20047;-68
2024/03/11 00:38:59;;;;;;;10.07;8.18;;;11.70;96.70;;;;;;4946545;29;20158;-68
2024/03/11 00:41:34;;;;;;;10.13;8.25;;;11.70;96.70;;;;;;4928020;29;20385;-68
2024/03/11 00:44:03;;;;;;;11.45;8.32;;;11.70;96.70;;;;;;4945084;29;20051;-67
2024/03/11 00:46:35;;;;;;;8.23;7.18;;;11.70;96.70;;;;;;4930622;29;20094;-68
2024/03/11 00:49:06;;;;;;;9.80;8.18;;;11.70;96.70;;;;;;4923950;29;20056;-68
2024/03/11 00:51:37;;;;;;;8.55;7.32;;;11.70;96.70;;;;;;4929164;29;20173;-68
2024/03/11 00:54:07;;;;;;;10.35;8.45;;;11.70;96.70;;;;;;4942137;29;20898;-68
2024/03/11 00:56:36;;;;;;;9.95;7.93;;;11.70;96.70;;;;;;4926767;29;20626;-67
2024/03/11 00:59:04;;;;;;;12.10;8.82;;;11.70;96.70;;;;;;4908434;29;20056;-68
2024/03/11 01:01:35;;;;;;;9.02;8.13;;;11.70;96.70;;;;;;4932542;29;20058;-68
2024/03/11 01:04:09;;;;;;;9.90;8.15;;;11.70;96.70;;;;;;4925482;29;20051;-68
2024/03/11 01:06:38;;;;;;;9.63;7.68;;;11.70;96.70;;;;;;4929814;29;20043;-68
2024/03/11 01:09:16;;;;;;;12.32;8.60;;;11.70;96.70;;;;;;4912774;29;20512;-68
2024/03/11 01:11:49;;;;;;;9.35;7.78;;;11.70;96.70;;;;;;4945989;29;20567;-68
2024/03/11 01:14:19;;;;;;;10.32;7.40;;;11.70;96.70;;;;;;4929047;29;20050;-67
2024/03/11 01:16:49;;;;;;;10.98;8.15;;;11.70;96.70;;;;;;4913391;29;20098;-68
2024/03/11 01:19:20;;;;;;;9.15;8.10;;;11.70;96.70;;;;;;4943092;29;20110;-68
2024/03/11 01:21:50;;;;;;;10.50;8.00;;;11.80;96.70;;;;;;4945465;29;20074;-68
2024/03/11 01:24:22;;;;;;;9.13;8.07;;;11.80;96.70;;;;;;4929111;29;20459;-67
2024/03/11 01:26:50;;;;;;;9.00;7.85;;;11.90;96.70;;;;;;4929175;29;20066;-67
2024/03/11 01:29:21;;;;;;;10.77;9.40;;;11.90;96.70;;;;;;4950907;28;20042;-68
2024/03/11 01:31:52;;;;;;;12.20;9.27;;;12.00;96.70;;;;;;4923878;29;20517;-67
2024/03/11 01:34:21;;;;;;;10.68;8.57;;;11.90;96.70;;;;;;4925285;29;20047;-68
2024/03/11 01:36:50;;;;;;;10.00;8.18;;;11.80;96.70;;;;;;4930371;29;20058;-68
2024/03/11 01:39:25;;;;;;;9.70;8.00;;;11.80;96.70;;;;;;4928149;29;20059;-67
2024/03/11 01:42:00;;;;;;;10.32;8.20;;;11.80;96.70;;;;;;4927771;29;20051;-68
2024/03/11 01:44:31;;;;;;;10.75;9.02;;;11.80;96.70;;;;;;4927639;29;20059;-68
2024/03/11 01:47:08;;;;;;;9.57;8.07;;;11.70;96.70;;;;;;4942174;29;20050;-68
2024/03/11 01:49:37;;;;;;;8.75;7.50;;;11.70;96.70;;;;;;4914402;29;20520;-67
2024/03/11 01:52:08;;;;;;;10.30;7.68;;;11.70;96.70;;;;;;4926081;29;20051;-68
2024/03/11 01:54:41;;;;;;;8.77;7.55;;;11.80;96.70;;;;;;4940648;29;20062;-67
2024/03/11 01:57:12;;;;;;;9.98;8.23;;;11.80;96.70;;;;;;4944714;29;20051;-68
2024/03/11 01:59:41;;;;;;;9.02;8.13;;;11.80;96.70;;;;;;4930024;29;20062;-68
2024/03/11 02:02:13;;;;;;;11.40;8.35;;;11.80;96.70;;;;;;4925303;29;20051;-68
2024/03/11 02:04:44;;;;;;;11.50;8.45;;;11.80;96.70;;;;;;4930109;29;20389;-67
2024/03/11 02:07:13;;;;;;;8.77;7.13;;;11.80;96.70;;;;;;4929584;29;20055;-68
2024/03/11 02:09:42;;;;;;;8.20;7.40;;;11.80;96.70;;;;;;4925152;29;20134;-67
2024/03/11 02:12:14;;;;;;;10.10;8.45;;;11.80;96.70;;;;;;4931021;29;20408;-68
2024/03/11 02:14:43;;;;;;;8.80;7.90;;;11.80;96.70;;;;;;4931219;29;20047;-68
2024/03/11 02:17:17;;;;;;;9.23;8.32;;;11.80;96.70;;;;;;4938895;29;20047;-68
2024/03/11 02:19:47;;;;;;;8.07;7.35;;;11.70;96.70;;;;;;4913377;29;20086;-68
2024/03/11 02:22:18;;;;;;;9.25;8.07;;;11.70;96.70;;;;;;4931438;29;20066;-67
2024/03/11 02:24:48;;;;;;;8.90;7.70;;;11.70;96.70;;;;;;4944599;29;20096;-68
2024/03/11 02:27:18;;;;;;;9.93;8.15;;;11.70;96.70;;;;;;4943158;29;20123;-68
2024/03/11 02:29:47;;;;;;;9.00;7.82;;;11.70;96.70;;;;;;4942686;29;20472;-68
2024/03/11 02:32:16;;;;;;;11.77;7.53;;;11.70;96.70;;;;;;4943544;29;20082;-67
2024/03/11 02:34:45;;;;;;;9.05;7.35;;;11.60;96.70;;;;;;4930932;29;20522;-67
2024/03/11 02:37:17;;;;;;;8.15;7.35;;;11.70;96.70;;;;;;4914205;29;20109;-68
2024/03/11 02:39:47;;;;;;;9.63;6.93;;;11.70;96.70;;;;;;4944084;29;20110;-68
2024/03/11 02:42:18;;;;;;;7.30;6.45;;;11.60;96.70;;;;;;4928418;29;20057;-68
2024/03/11 02:44:48;;;;;;;9.32;7.35;;;11.60;96.70;;;;;;4930921;29;20136;-68
2024/03/11 02:47:18;;;;;;;8.90;6.97;;;11.50;96.70;;;;;;4922594;29;20071;-68
2024/03/11 02:49:49;;;;;;;8.93;6.53;;;11.50;96.70;;;;;;4907062;29;20468;-68
2024/03/11 02:52:22;;;;;;;6.97;5.97;;;11.40;96.70;;;;;;4915386;29;20059;-68
2024/03/11 02:54:53;;;;;;;6.22;5.63;;;11.40;96.70;;;;;;4946558;29;20047;-68
2024/03/11 02:57:24;;;;;;;6.70;5.18;;;11.30;96.70;;;;;;4930439;29;20078;-68
2024/03/11 02:59:52;;;;;;;6.72;5.13;;;11.30;96.70;;;;;;4931292;29;20115;-68
2024/03/11 03:02:20;;;;;;;7.60;6.80;;;11.30;96.70;;;;;;4945870;29;20043;-68
2024/03/11 03:04:49;;;;;;;8.40;6.75;;;11.20;96.70;;;;;;4934374;29;20142;-68
2024/03/11 03:07:19;;;;;;;8.18;6.00;;;11.20;96.70;;;;;;4933941;29;20498;-68
2024/03/11 03:09:47;;;;;;;9.90;5.72;;;11.10;96.70;;;;;;4932709;29;20593;-68
2024/03/11 03:12:20;;;;;;;7.50;6.10;;;11.10;96.70;;;;;;4933596;29;20142;-67
2024/03/11 03:14:48;;;;;;;7.53;5.88;;;11.20;96.70;;;;;;4928866;29;20051;-67
2024/03/11 03:17:19;;;;;;;8.90;6.80;;;11.20;96.70;;;;;;4915485;29;20050;-68
2024/03/11 03:19:48;;;;;;;7.07;6.20;;;11.20;96.70;;;;;;4916481;29;20047;-68
2024/03/11 03:22:18;;;;;;;8.25;7.03;;;11.30;96.70;;;;;;4915966;29;20051;-68
2024/03/11 03:24:48;;;;;;;8.45;6.05;;;11.10;96.70;;;;;;4932717;29;20058;-68
2024/03/11 03:27:22;;;;;;;8.15;6.55;;;11.00;96.70;;;;;;4931230;29;20142;-68
2024/03/11 03:29:52;;;;;;;7.78;6.10;;;11.00;96.70;;;;;;4945176;28;20047;-68
2024/03/11 03:32:22;;;;;;;8.75;6.53;;;11.00;96.70;;;;;;4948760;29;20247;-68
2024/03/11 03:34:50;;;;;;;6.82;6.05;;;11.00;96.70;;;;;;4933153;29;21002;-68
2024/03/11 03:37:20;;;;;;;10.95;6.45;;;11.00;96.70;;;;;;4932694;29;20094;-68
2024/03/11 03:39:49;;;;;;;7.97;6.20;;;11.00;96.70;;;;;;4938836;29;20071;-68
2024/03/11 03:42:20;;;;;;;7.25;6.20;;;11.00;96.70;;;;;;4947654;29;20069;-67
2024/03/11 03:44:52;;;;;;;8.10;6.45;;;10.90;96.70;;;;;;4929854;29;20501;-68
2024/03/11 03:47:22;;;;;;;7.97;6.15;;;10.60;96.70;;;;;;4933149;29;20094;-68
2024/03/11 03:49:53;;;;;;;10.45;6.55;;;10.40;96.70;;;;;;4932176;29;20495;-68
2024/03/11 03:52:23;;;;;;;8.88;6.03;;;10.20;96.70;;;;;;4927634;29;20047;-68
2024/03/11 03:54:51;;;;;;;8.50;6.40;;;10.20;96.70;;;;;;4930695;29;20043;-68
2024/03/11 03:57:21;;;;;;;8.95;5.78;;;10.30;96.70;;;;;;4931333;29;20082;-68
2024/03/11 03:59:53;;;;;;;7.72;5.65;;;10.30;96.70;;;;;;4928391;29;20051;-68
2024/03/11 04:02:22;;;;;;;7.13;5.20;;;10.40;96.70;;;;;;4908286;29;20113;-68
2024/03/11 04:04:51;;;;;;;7.78;5.90;;;10.40;96.70;;;;;;4932762;29;20066;-69
2024/03/11 04:07:21;;;;;;;7.55;5.55;;;10.50;96.70;;;;;;4918813;29;20110;-68
2024/03/11 04:09:49;;;;;;;8.82;6.13;;;10.50;96.70;;;;;;4932545;28;20765;-67
2024/03/11 04:12:20;;;;;;;8.27;5.65;;;10.60;96.70;;;;;;4931446;29;20146;-68
2024/03/11 04:14:48;;;;;;;8.43;6.10;;;10.70;96.70;;;;;;4925119;29;20051;-68
2024/03/11 04:17:18;;;;;;;6.57;5.32;;;10.80;96.70;;;;;;4928128;29;20544;-67
2024/03/11 04:19:48;;;;;;;5.60;4.38;;;10.70;96.70;;;;;;4926510;29;20047;-68
2024/03/11 04:22:19;;;;;;;6.63;5.22;;;10.70;96.70;;;;;;4931901;29;20051;-68
2024/03/11 04:24:48;;;;;;;4.70;4.30;;;10.70;96.70;;;;;;4932009;29;20103;-68
2024/03/11 04:27:18;;;;;;;7.30;4.53;;;10.60;96.70;;;;;;4930760;29;20051;-68
2024/03/11 04:29:49;;;;;;;6.50;4.05;;;10.40;96.70;;;;;;4928002;29;20134;-68
2024/03/11 04:32:19;;;;;;;6.93;4.50;;;10.40;96.70;;;;;;4914932;29;20125;-68
2024/03/11 04:34:47;;;;;;;5.50;4.15;;;10.40;96.70;;;;;;4947261;29;20050;-68
2024/03/11 04:37:16;;;;;;;4.18;3.50;;;10.40;96.70;;;;;;4929695;29;20047;-67
2024/03/11 04:39:45;;;;;;;5.97;3.70;;;10.50;96.70;;;;;;4931333;29;20073;-68
2024/03/11 04:42:14;;;;;;;5.82;3.53;;;10.50;96.70;;;;;;4944511;29;20043;-67
2024/03/11 04:44:46;;;;;;;4.03;2.97;;;10.50;96.70;;;;;;4931938;29;20047;-68
2024/03/11 04:47:14;;;;;;;3.97;3.17;;;10.50;96.70;;;;;;4930013;29;20044;-67
2024/03/11 04:49:46;;;;;;;5.80;3.08;;;10.50;96.70;;;;;;4930292;29;20098;-67
2024/03/11 04:52:14;;;;;;;5.80;3.10;;;10.50;96.70;;;;;;4938775;29;20483;-67
2024/03/11 04:54:44;;;;;;;4.13;3.03;;;10.60;96.70;;;;;;4912419;29;20047;-68
2024/03/11 04:57:13;;;;;;;3.47;2.90;;;10.60;96.70;;;;;;4930134;29;20512;-67
2024/03/11 04:59:41;;;;;;;4.22;3.17;;;10.50;96.70;;;;;;4929257;29;20047;-68
2024/03/11 05:02:09;;;;;;;6.97;3.08;;;10.50;96.70;;;;;;4928192;29;20071;-68
2024/03/11 05:04:38;;;;;;;5.90;3.03;;;10.50;96.70;;;;;;4928371;29;20174;-67
2024/03/11 05:07:08;;;;;;;5.75;2.47;;;10.50;96.70;;;;;;4928533;29;20055;-67
2024/03/11 05:09:36;;;;;;;3.13;2.47;;;10.50;96.70;;;;;;4930137;29;20067;-68
2024/03/11 05:12:05;;;;;;;5.35;3.10;;;10.50;96.70;;;;;;4944315;29;20523;-68
2024/03/11 05:14:34;;;;;;;5.70;2.70;;;10.50;96.70;;;;;;4915923;29;20047;-68
2024/03/11 05:17:02;;;;;;;4.25;2.58;;;10.30;96.70;;;;;;4930558;29;20062;-67
2024/03/11 05:19:30;;;;;;;6.20;2.70;;;10.10;96.70;;;;;;4931626;29;20705;-67
2024/03/11 05:21:58;;;;;;;5.95;2.97;;;10.20;96.70;;;;;;4949027;28;20051;-68
2024/03/11 05:24:28;;;;;;;5.20;3.10;;;10.20;96.70;;;;;;4919836;29;20090;-68
2024/03/11 05:26:57;;;;;;;3.08;2.60;;;10.30;96.70;;;;;;4917882;29;20099;-68
2024/03/11 05:29:25;;;;;;;4.50;3.15;;;10.30;96.70;;;;;;4931952;29;20051;-67
2024/03/11 05:31:53;;;;;;;5.38;3.00;;;10.40;96.70;;;;;;4928519;29;20517;-68
2024/03/11 05:34:22;;;;;;;4.60;2.70;;;10.30;96.70;;;;;;4929395;29;20803;-68
2024/03/11 05:36:50;;;;;;;5.07;3.03;;;10.30;96.70;;;;;;4927944;29;20424;-67
2024/03/11 05:39:18;;;;;;;3.58;2.65;;;10.30;96.70;;;;;;4944475;29;20051;-68
2024/03/11 05:41:49;;;;;;;4.45;3.05;;;10.30;96.70;;;;;;4945091;29;20055;-68
2024/03/11 05:44:19;;;;;;;5.13;3.00;;;10.30;96.70;;;;;;4925932;29;20051;-68
2024/03/11 05:46:47;;;;;;;5.00;2.78;;;10.30;96.70;;;;;;4931727;29;20055;-67
2024/03/11 05:49:15;;;;;;;5.05;2.70;;;10.30;96.70;;;;;;4909957;29;20595;-67
2024/03/11 05:51:43;;;;;;;6.30;3.20;;;10.30;96.70;;;;;;4913143;29;20051;-68
2024/03/11 05:54:18;;;;;;;4.68;3.10;;;10.30;96.70;;;;;;4911487;29;20536;-67
2024/03/11 05:56:54;;;;;;;3.42;2.58;;;10.20;96.70;;;;;;4915139;29;20133;-67
2024/03/11 05:59:23;;;;;;;3.88;2.70;;;10.20;96.70;;;;;;4909299;29;20047;-67
2024/03/11 06:01:53;;;;;;;5.72;3.35;;;10.10;96.70;;;;;;4940844;29;20122;-68
2024/03/11 06:04:21;;;;;;;3.78;2.97;;;10.20;96.70;;;;;;4930097;29;20082;-68
2024/03/11 06:06:51;;;;;;;4.72;3.15;;;10.10;96.70;;;;;;4929933;29;20522;-67
2024/03/11 06:09:19;;;;;;;5.82;3.50;;;10.10;96.70;;;;;;4916305;29;20047;-68
2024/03/11 06:11:49;;;;;;;6.63;3.97;;;10.10;96.70;;;;;;4915112;29;20047;-67
2024/03/11 06:14:18;;;;;;;5.30;3.40;;;10.10;96.70;;;;;;4944365;29;20055;-68
2024/03/11 06:16:46;;;;;;;4.57;3.13;;;10.10;96.70;;;;;;4928969;29;20043;-67
2024/03/11 06:19:15;;;;;;;7.97;3.60;;;10.10;96.70;;;;;;4929074;29;20052;-67
2024/03/11 06:21:44;;;;;;;4.68;3.85;;;10.10;96.70;;;;;;4922902;29;20051;-67
2024/03/11 06:24:12;;;;;;;5.05;4.00;;;10.00;96.70;;;;;;4942161;29;20865;-67
2024/03/11 06:26:40;;;;;;;4.07;3.30;;;10.00;96.70;;;;;;4925306;29;20050;-68
2024/03/11 06:29:10;;;;;;;9.15;4.30;;;10.00;96.70;;;;;;4942867;29;20055;-67
2024/03/11 06:31:39;;;;;;;8.13;3.70;;;10.00;96.70;;;;;;4921400;29;20059;-68
2024/03/11 06:34:07;;;;;;;6.32;4.38;;;10.00;96.70;;;;;;4930168;29;20047;-68
2024/03/11 06:36:35;;;;;;;7.00;4.78;;;10.00;96.70;;;;;;4952230;29;20452;-67
2024/03/11 06:39:04;;;;;;;6.10;4.10;;;10.10;96.70;;;;;;4935392;29;20070;-67
2024/03/11 06:41:34;;;;;;;7.85;4.60;;;10.20;96.70;;;;;;4934690;29;20059;-67
2024/03/11 06:44:05;;;;;;;6.10;4.25;;;10.30;96.70;;;;;;4915372;29;20889;-68
2024/03/11 06:46:40;;;;;;;6.38;4.50;;;10.50;96.70;;;;;;4934524;29;20063;-68
2024/03/11 06:49:08;;;;;;;6.30;4.43;;;10.50;96.70;;;;;;4910129;29;20059;-67
2024/03/11 06:51:39;;;;;;;6.07;3.95;;;10.60;96.70;;;;;;4934449;29;20421;-68
2024/03/11 06:54:07;;;;;;;5.30;4.18;;;10.70;96.70;;;;;;4916531;29;20049;-67
2024/03/11 06:56:35;;;;;;;6.05;3.97;;;10.70;96.70;;;;;;4932014;29;20055;-68
2024/03/11 06:59:05;;;;;;;8.43;4.88;;;10.70;96.70;;;;;;4930146;29;20532;-68
2024/03/11 07:01:36;;;;;;;9.68;5.15;;;10.70;96.70;;;;;;4934164;29;20059;-68
2024/03/11 07:04:08;;;;;;;5.90;4.60;;;10.70;96.70;;;;;;4933640;29;20066;-68
2024/03/11 07:06:42;;;;;;;7.13;4.93;;;10.80;96.70;;;;;;4933523;29;20050;-68
2024/03/11 07:09:12;;;;;;;8.43;5.00;;;10.90;96.70;;;;;;4934683;29;20039;-66
2024/03/11 07:11:42;;;;;;;6.80;4.85;;;10.90;96.70;;;;;;4930959;29;20055;-66
2024/03/11 07:14:16;;;;;;;6.95;4.82;;;10.90;96.70;;;;;;4947476;29;20055;-67
2024/03/11 07:16:49;;;;;;;12.00;5.65;;;10.90;96.70;;;;;;4934187;29;20065;-66
2024/03/11 07:19:22;;;;;;;6.25;5.13;;;10.90;96.70;;;;;;4933032;29;20058;-68
2024/03/11 07:21:55;;;;;;;7.97;5.47;;;10.90;96.70;;;;;;4917601;29;20057;-68
2024/03/11 07:24:23;;;;;;;8.20;5.50;;;11.00;96.70;;;;;;4934014;29;20059;-67
2024/03/11 07:26:53;;;;;;;8.32;5.47;;;11.10;96.70;;;;;;4952134;28;20419;-65
2024/03/11 07:29:23;;;;;;;7.50;5.63;;;11.20;96.70;;;;;;4918003;29;20137;-65
2024/03/11 07:31:53;;;;;;;7.07;5.35;;;11.20;96.70;;;;;;4933283;29;20050;-65
2024/03/11 07:34:24;;;;;;;7.95;5.22;;;11.20;96.70;;;;;;4932464;29;20512;-65
2024/03/11 07:36:55;;;;;;;5.93;4.82;;;11.30;96.70;;;;;;4933514;29;20062;-65
2024/03/11 07:39:25;;;;;;;9.48;4.72;;;11.40;96.70;;;;;;4931082;29;20659;-65
2024/03/11 07:41:55;;;;;;;10.18;5.80;;;11.50;96.70;;;;;;4930090;29;20105;-66
2024/03/11 07:44:25;;;;;;;9.55;6.05;;;11.60;96.70;;;;;;4916588;29;20137;-66
2024/03/11 07:46:55;;;;;;;9.63;5.88;;;11.60;96.70;;;;;;4927744;29;20126;-66
2024/03/11 07:49:29;;;;;;;7.78;6.20;;;11.60;96.70;;;;;;4945728;29;20110;-65
2024/03/11 07:51:59;;;;;;;8.27;5.85;;;11.60;96.70;;;;;;4946029;29;20062;-66
2024/03/11 07:54:31;;;;;;;14.50;8.40;;;11.70;96.70;;;;;;4933738;29;20055;-66
2024/03/11 07:57:01;;;;;;;12.27;7.88;;;11.70;96.70;;;;;;4933637;29;20047;-66
2024/03/11 07:59:30;;;;;;;14.02;7.97;;;11.80;96.70;;;;;;4933264;29;20058;-65
2024/03/11 08:02:00;;;;;;;14.15;7.50;;;11.90;96.70;;;;;;4932809;29;20062;-66
2024/03/11 08:04:33;;;;;;;16.83;8.60;;;12.00;96.70;;;;;;4914845;29;20063;-65
2024/03/11 08:07:02;;;;;;;12.00;7.75;;;12.00;96.70;;;;;;4928961;29;20055;-66
2024/03/11 08:09:31;;;;;;;11.25;7.60;;;12.10;96.70;;;;;;4931902;29;20051;-66
2024/03/11 08:12:02;;;;;;;12.73;7.60;;;12.20;96.70;;;;;;4932064;29;20110;-65
2024/03/11 08:14:33;;;;;;;12.32;6.95;;;12.20;96.70;;;;;;4929700;29;20154;-66
2024/03/11 08:17:06;;;;;;;8.70;5.95;;;12.30;96.70;;;;;;4930190;29;20047;-67
2024/03/11 08:19:40;;;;;;;10.55;6.82;;;12.30;96.70;;;;;;4927445;29;20536;-65
2024/03/11 08:22:09;;;;;;;7.68;6.10;;;12.40;96.70;;;;;;4918019;29;20055;-66
2024/03/11 08:24:39;;;;;;;10.65;6.53;;;12.30;96.70;;;;;;4922372;29;20051;-66
2024/03/11 08:27:08;;;;;;;5.95;4.93;;;12.20;96.70;;;;;;4919752;29;20059;-66
2024/03/11 08:29:40;;;;;;;5.82;4.70;;;12.30;96.70;;;;;;4916244;29;20079;-66
2024/03/11 08:32:09;;;;;;;6.63;4.55;;;12.20;96.70;;;;;;4930709;29;20066;-65
2024/03/11 08:34:39;;;;;;;7.60;5.13;;;12.20;96.70;;;;;;4945526;29;20098;-65
2024/03/11 08:37:08;;;;;;;5.60;4.60;;;12.10;96.70;;;;;;4944561;28;20055;-66
2024/03/11 08:39:37;;;;;;;6.63;4.57;;;12.20;96.70;;;;;;4928302;29;20036;-65
2024/03/11 08:42:07;;;;;;;6.15;4.57;;;12.20;96.70;;;;;;4927356;29;20055;-66
2024/03/11 08:44:38;;;;;;;7.75;5.00;;;12.40;96.70;;;;;;4925358;29;20047;-66
2024/03/11 08:47:08;;;;;;;8.88;6.70;;;12.50;96.70;;;;;;4945277;29;20059;-66
2024/03/11 08:49:47;;;;;;;8.80;5.03;;;12.60;96.70;;;;;;4930860;29;20129;-67
2024/03/11 08:52:17;;;;;;;6.93;4.43;;;12.60;96.70;;;;;;4930575;29;20055;-66
2024/03/11 08:54:50;;;;;;;6.90;4.20;;;12.70;96.70;;;;;;4923980;29;20406;-66
2024/03/11 08:57:19;;;;;;;7.10;4.20;;;12.80;96.70;;;;;;4915245;29;20169;-65
2024/03/11 08:59:49;;;;;;;7.53;4.10;;;12.90;96.70;;;;;;4925389;29;20094;-65
2024/03/11 09:02:19;;;;;;;5.78;3.92;;;13.00;96.70;;;;;;4931189;29;20055;-66
2024/03/11 09:04:49;;;;;;;7.07;4.18;;;13.10;96.70;;;;;;4928954;29;20064;-66
2024/03/11 09:07:20;;;;;;;5.38;3.15;;;13.10;96.70;;;;;;4944977;28;20079;-66
2024/03/11 09:09:49;;;;;;;5.95;4.50;;;13.20;96.70;;;;;;4929605;29;20077;-66
2024/03/11 09:12:22;;;;;;;8.15;4.38;;;13.30;96.70;;;;;;4940254;29;20127;-66
2024/03/11 09:14:55;;;;;;;10.18;4.32;;;13.30;96.70;;;;;;4931522;29;20047;-67
2024/03/11 09:17:24;;;;;;;6.43;3.63;;;13.40;96.70;;;;;;4944259;29;20185;-65
2024/03/11 09:19:58;;;;;;;6.85;4.60;;;13.50;96.70;;;;;;4914953;29;20058;-66
2024/03/11 09:22:28;;;;;;;6.70;3.95;;;13.60;96.70;;;;;;4931039;29;20055;-66
2024/03/11 09:24:57;;;;;;;6.13;3.97;;;13.60;96.70;;;;;;4947513;29;20504;-66
2024/03/11 09:27:26;;;;;;;6.20;4.13;;;13.70;96.70;;;;;;4931041;29;20055;-67
2024/03/11 09:29:55;;;;;;;6.18;3.85;;;13.80;96.70;;;;;;4947773;29;20048;-68
2024/03/11 09:32:26;;;;;;;4.20;3.03;;;13.90;96.70;;;;;;4945274;29;20055;-68
2024/03/11 09:34:58;;;;;;;8.68;4.47;;;13.90;96.70;;;;;;4931134;29;20053;-67
2024/03/11 09:37:28;;;;;;;4.38;2.60;;;14.00;96.70;;;;;;4946393;29;20142;-67
2024/03/11 09:39:58;;;;;;;7.97;3.63;;;14.10;96.70;;;;;;4931474;29;20047;-71
2024/03/11 09:42:30;;;;;;;4.68;2.83;;;14.20;96.70;;;;;;4915853;29;20107;-68
2024/03/11 09:45:01;;;;;;;10.05;3.17;;;14.20;96.70;;;;;;4930203;29;20079;-67
2024/03/11 09:47:29;;;;;;;6.50;3.45;;;14.30;96.70;;;;;;4913948;29;20075;-67
2024/03/11 09:50:00;;;;;;;7.97;3.70;;;14.30;96.70;;;;;;4939969;28;20043;-67
2024/03/11 09:52:34;;;;;;;6.05;3.67;;;14.50;96.70;;;;;;4931038;29;20567;-67
2024/03/11 09:55:05;;;;;;;7.47;3.58;;;14.50;96.70;;;;;;4930026;29;20059;-67
2024/03/11 09:57:41;;;;;;;5.28;3.13;;;14.60;96.70;;;;;;4946086;29;20138;-67
2024/03/11 10:00:17;;;;;;;5.85;3.08;;;14.60;96.70;;;;;;4924509;29;20051;-68
2024/03/11 10:02:54;;;;;;;4.15;2.90;;;14.80;96.70;;;;;;4947594;29;20073;-67
2024/03/11 10:05:27;;;;;;;8.30;2.50;;;14.90;96.70;;;;;;4948087;29;20176;-68
2024/03/11 10:07:57;;;;;;;5.13;2.50;;;15.00;96.70;;;;;;4923375;29;20564;-67
2024/03/11 10:10:32;;;;;;;7.10;2.22;;;15.10;96.70;;;;;;4919771;29;20146;-67
2024/03/11 10:13:04;;;;;;;8.55;2.53;;;15.10;96.70;;;;;;4934354;29;20121;-67
2024/03/11 10:15:35;;;;;;;7.50;2.72;;;15.10;96.70;;;;;;4935570;29;20120;-67
2024/03/11 10:18:27;;;;;;;5.53;1.77;;;15.20;96.70;;;;;;4934021;29;20252;-67
2024/03/11 10:20:58;;;;;;;7.45;1.90;;;15.20;96.70;;;;;;4935304;29;20420;-67
2024/03/11 10:23:28;;;;;;;6.47;2.15;;;15.30;96.70;;;;;;4920021;29;20051;-67
2024/03/11 10:26:17;;;;;;;7.40;1.63;;;15.50;96.70;;;;;;4935049;29;20401;-67
2024/03/11 10:28:47;;;;;;;4.88;2.20;;;15.70;96.70;;;;;;4918990;29;20125;-68
2024/03/11 10:31:21;;;;;;;5.10;1.48;;;15.80;96.70;;;;;;4934344;29;20055;-67
2024/03/11 10:33:53;;;;;;;4.00;1.42;;;15.80;96.70;;;;;;4950430;29;20055;-67
2024/03/11 10:36:25;;;;;;;5.22;1.90;;;15.80;96.70;;;;;;4934610;29;20052;-67
2024/03/11 10:38:56;;;;;;;7.93;1.85;;;15.90;96.70;;;;;;4934826;29;20436;-68
2024/03/11 10:41:28;;;;;;;8.55;2.00;;;16.10;96.70;;;;;;4935171;29;20809;-68
2024/03/11 10:43:58;;;;;;;6.57;2.22;;;16.30;96.70;;;;;;4928649;29;20122;-68
2024/03/11 10:46:32;;;;;;;6.18;1.23;;;16.30;96.70;;;;;;4933214;29;20154;-67
2024/03/11 10:49:02;;;;;;;3.00;1.15;;;16.40;96.70;;;;;;4934442;29;20383;-67
2024/03/11 10:51:35;;;;;;;5.47;2.10;;;16.50;96.70;;;;;;4919787;29;20615;-67
2024/03/11 10:54:05;;;;;;;6.75;1.95;;;16.50;96.70;;;;;;4936453;29;20074;-67
2024/03/11 10:56:34;;;;;;;11.80;2.20;;;16.80;96.70;;;;;;4948544;29;20079;-68
2024/03/11 10:59:04;;;;;;;7.65;1.67;;;16.90;96.70;;;;;;4932112;29;20074;-67
2024/03/11 11:01:34;;;;;;;3.72;1.30;;;16.90;96.70;;;;;;4916311;29;20055;-67
2024/03/11 11:04:19;;;;;;;7.15;2.22;;;17.00;96.70;;;;;;4933553;29;20563;-67
2024/03/11 11:06:51;;;;;;;7.22;1.40;;;17.10;96.70;;;;;;4931513;29;20059;-66
2024/03/11 11:09:24;;;;;;;5.57;1.65;;;17.10;96.70;;;;;;4927157;29;20051;-67
2024/03/11 11:11:54;;;;;;;5.45;1.35;;;17.20;96.70;;;;;;4927722;29;20074;-68
2024/03/11 11:14:24;;;;;;;4.32;1.23;;;17.30;96.70;;;;;;4945684;29;20117;-67
2024/03/11 11:17:03;;;;;;;2.00;0.88;;;17.50;96.70;;;;;;4932003;29;20047;-68
2024/03/11 11:19:33;;;;;;;6.53;1.17;;;17.60;96.70;;;;;;4918151;28;20055;-68
2024/03/11 11:22:09;;;;;;;5.38;1.20;;;17.60;96.70;;;;;;4917719;29;20062;-68
2024/03/11 11:24:41;;;;;;;3.05;0.90;;;17.70;96.70;;;;;;4933921;29;20086;-68
2024/03/11 11:27:15;;;;;;;4.53;0.82;;;17.70;96.70;;;;;;4933345;29;20067;-67
2024/03/11 11:29:46;;;;;;;4.75;1.00;;;17.70;96.70;;;;;;4910352;29;20051;-66
2024/03/11 11:32:18;;;;;;;4.65;1.90;;;17.70;96.70;;;;;;4940222;29;20456;-68
2024/03/11 11:34:52;;;;;;;5.70;1.20;;;17.80;96.70;;;;;;4929930;29;20141;-67
2024/03/11 11:37:39;;;;;;;4.22;0.95;;;18.00;96.70;;;;;;4951209;29;20538;-68
2024/03/11 11:40:32;;;;;;;;;;;18.10;96.70;;;;;;4933725;29;20574;-68
2024/03/11 11:43:03;;;;;;;4.88;2.50;;;18.30;96.70;;;;;;4945577;29;19970;-67
2024/03/11 11:45:50;;;;;;;3.33;1.15;;;18.40;96.70;;;;;;4933339;29;20058;-67
2024/03/11 11:48:25;;;;;;;3.85;1.10;;;18.40;96.70;;;;;;4933379;29;20078;-67
2024/03/11 11:51:02;;;;;;;7.50;1.42;;;18.40;96.70;;;;;;4924011;29;20055;-67
2024/03/11 11:53:38;;;;;;;5.13;1.00;;;18.40;96.70;;;;;;4925593;29;20061;-68
2024/03/11 11:56:22;;;;;;;7.00;1.45;;;18.30;96.70;;;;;;4936113;29;20149;-68
2024/03/11 11:59:01;;;;;;;3.88;1.20;;;18.40;96.70;;;;;;4934425;29;20428;-67
2024/03/11 12:01:47;;;;;;;5.22;0.85;;;18.30;96.70;;;;;;4933624;29;20070;-67
2024/03/11 12:04:18;;;;;;;3.72;1.10;;;18.40;96.70;;;;;;4911234;29;20083;-67
2024/03/11 12:06:50;;;;;;;4.97;1.23;;;18.10;96.70;;;;;;4932163;29;20061;-67
2024/03/11 12:09:23;;;;;;;3.28;0.98;;;17.90;96.70;;;;;;4933827;29;20047;-67
2024/03/11 12:11:57;;;;;;;4.13;0.80;;;17.80;96.70;;;;;;4933416;29;20054;-67
2024/03/11 12:14:27;;;;;;;4.88;0.95;;;17.70;96.70;;;;;;4933184;29;20055;-67
2024/03/11 12:17:04;;;;;;;4.45;0.65;;;17.60;96.70;;;;;;4933070;29;20055;-68
2024/03/11 12:19:33;;;;;;;2.80;0.95;;;17.50;96.70;;;;;;4924525;29;20198;-67
2024/03/11 12:22:10;;;;;;;5.30;0.90;;;17.50;96.70;;;;;;4933546;29;20549;-67
2024/03/11 12:24:44;;;;;;;3.20;0.52;;;17.40;96.70;;;;;;4949129;28;20059;-68
2024/03/11 12:27:14;;;;;;;5.60;1.17;;;17.20;96.70;;;;;;4932384;29;20066;-68
2024/03/11 12:29:46;;;;;;;6.03;1.30;;;17.10;96.70;;;;;;4931050;29;20052;-67
2024/03/11 12:32:17;;;;;;;5.20;1.30;;;17.10;96.70;;;;;;4907800;29;20063;-68
2024/03/11 12:34:49;;;;;;;4.45;0.98;;;16.90;96.70;;;;;;4927666;29;20055;-67
2024/03/11 12:37:22;;;;;;;3.92;0.90;;;16.80;96.70;;;;;;4931082;29;20055;-68
2024/03/11 12:39:53;;;;;;;6.13;1.45;;;16.70;96.70;;;;;;4931862;29;20075;-67
2024/03/11 12:42:29;;;;;;;5.60;1.40;;;16.70;96.70;;;;;;4933433;29;20118;-67
2024/03/11 12:45:03;;;;;;;3.20;0.98;;;16.60;96.70;;;;;;4932542;29;20092;-67
2024/03/11 12:47:34;;;;;;;5.18;0.80;;;16.70;96.70;;;;;;4932701;29;20051;-68
2024/03/11 12:50:08;;;;;;;22.92;10.75;;;16.60;96.70;;;;;;4923879;29;20675;-67
2024/03/11 12:52:40;;;;;;;8.02;3.45;;;16.60;96.70;;;;;;4932995;29;20060;-67
2024/03/11 12:55:19;;;;;;;4.55;1.73;;;16.50;96.70;;;;;;4933092;29;20198;-68
2024/03/11 12:57:49;;;;;;;4.53;1.33;;;16.60;96.70;;;;;;4916977;29;20075;-67
2024/03/11 13:00:21;;;;;;;4.72;1.25;;;16.60;96.70;;;;;;4932439;29;20127;-67
2024/03/11 13:03:08;;;;;;;1.92;0.65;;;16.60;96.70;;;;;;4916772;29;20055;-67
2024/03/11 13:05:37;;;;;;;4.40;1.20;;;16.40;96.70;;;;;;4931683;29;20058;-67